createdAt,value
2019-02-11T00:02:11.027Z,2.67
2019-02-11T00:04:36.868Z,4.07
2019-02-11T00:07:05.461Z,2.70
2019-02-11T00:09:31.311Z,3.53
2019-02-11T00:11:57.157Z,4.53
2019-02-11T00:14:22.983Z,4.93
2019-02-11T00:16:48.821Z,3.40
2019-02-11T00:19:14.674Z,3.20
2019-02-11T00:21:40.595Z,3.63
2019-02-11T00:24:06.408Z,4.00
2019-02-11T00:26:32.269Z,2.93
2019-02-11T00:28:58.079Z,3.13
2019-02-11T00:31:24.023Z,3.03
2019-02-11T00:33:50.147Z,3.50
2019-02-11T00:36:17.932Z,3.10
2019-02-11T00:38:43.782Z,2.57
2019-02-11T00:41:09.621Z,3.63
2019-02-11T00:43:35.464Z,4.13
2019-02-11T00:46:01.302Z,2.90
2019-02-11T00:48:27.119Z,3.53
2019-02-11T00:50:52.976Z,3.13
2019-02-11T00:53:18.791Z,3.57
2019-02-11T00:55:44.649Z,3.20
2019-02-11T00:58:10.504Z,2.70
2019-02-11T01:00:36.332Z,2.47
2019-02-11T01:03:02.178Z,2.50
2019-02-11T01:05:28.013Z,2.87
2019-02-11T01:07:53.853Z,3.13
2019-02-11T01:10:19.776Z,3.33
2019-02-11T01:12:45.616Z,2.80
2019-02-11T01:15:11.561Z,1.77
2019-02-11T01:17:37.416Z,5.17
2019-02-11T01:20:06.440Z,2.53
2019-02-11T01:22:32.392Z,1.77
2019-02-11T01:24:58.219Z,1.83
2019-02-11T01:27:24.061Z,2.17
2019-02-11T01:29:49.885Z,3.43
2019-02-11T01:32:15.732Z,3.47
2019-02-11T01:34:41.553Z,3.57
2019-02-11T01:37:07.499Z,5.30
2019-02-11T01:39:33.322Z,3.43
2019-02-11T01:41:59.132Z,4.67
2019-02-11T01:44:24.987Z,5.63
2019-02-11T01:46:50.913Z,4.67
2019-02-11T01:49:16.751Z,5.40
2019-02-11T01:51:42.564Z,4.67
2019-02-11T01:54:08.407Z,4.30
2019-02-11T01:56:34.241Z,4.03
2019-02-11T01:59:00.110Z,4.10
2019-02-11T02:01:25.929Z,2.40
2019-02-11T02:03:51.775Z,2.50
2019-02-11T02:06:17.593Z,5.77
2019-02-11T02:08:43.443Z,3.43
2019-02-11T02:11:09.265Z,5.40
2019-02-11T02:13:35.104Z,3.80
2019-02-11T02:16:00.951Z,4.70
2019-02-11T02:18:26.745Z,6.30
2019-02-11T02:20:52.588Z,11.13
2019-02-11T02:23:18.400Z,6.07
2019-02-11T02:25:44.244Z,8.70
2019-02-11T02:28:10.075Z,10.13
2019-02-11T02:30:35.928Z,10.60
2019-02-11T02:33:01.731Z,9.67
2019-02-11T02:35:27.579Z,8.23
2019-02-11T02:37:53.409Z,9.77
2019-02-11T02:40:19.246Z,9.27
2019-02-11T02:42:45.063Z,7.57
2019-02-11T02:45:11.032Z,7.87
2019-02-11T02:47:36.882Z,6.27
2019-02-11T02:50:05.429Z,13.73
2019-02-11T02:52:31.269Z,10.00
2019-02-11T02:54:57.045Z,9.17
2019-02-11T02:57:22.878Z,8.60
2019-02-11T02:59:48.738Z,8.10
2019-02-11T03:02:15.198Z,13.00
2019-02-11T03:04:41.013Z,15.03
2019-02-11T03:07:06.845Z,11.20
2019-02-11T03:09:32.649Z,17.00
2019-02-11T03:11:58.489Z,14.17
2019-02-11T03:14:24.298Z,9.77
2019-02-11T03:16:50.139Z,13.27
2019-02-11T03:19:15.953Z,9.97
2019-02-11T03:21:41.803Z,14.47
2019-02-11T03:24:07.612Z,12.40
2019-02-11T03:26:33.464Z,10.40
2019-02-11T03:28:59.276Z,11.80
2019-02-11T03:31:25.116Z,9.53
2019-02-11T03:33:50.940Z,12.90
2019-02-11T03:36:16.758Z,12.33
2019-02-11T03:38:42.600Z,11.27
2019-02-11T03:41:08.445Z,10.23
2019-02-11T03:43:34.286Z,8.53
2019-02-11T03:46:00.118Z,11.83
2019-02-11T03:48:25.952Z,10.67
2019-02-11T03:50:51.879Z,8.70
2019-02-11T03:53:17.828Z,12.97
2019-02-11T03:55:43.753Z,12.90
2019-02-11T03:58:09.725Z,12.43
2019-02-11T04:00:36.156Z,16.63
2019-02-11T04:03:01.992Z,18.93
2019-02-11T04:05:27.900Z,19.03
2019-02-11T04:07:53.751Z,18.93
2019-02-11T04:10:19.559Z,26.27
2019-02-11T04:12:45.377Z,21.33
2019-02-11T04:15:11.319Z,24.97
2019-02-11T04:17:37.132Z,23.40
2019-02-11T04:20:05.169Z,25.20
2019-02-11T04:22:30.982Z,30.13
2019-02-11T04:24:56.827Z,20.93
2019-02-11T04:27:22.752Z,26.80
2019-02-11T04:29:48.589Z,32.27
2019-02-11T04:32:14.400Z,25.97
2019-02-11T04:34:40.255Z,23.53
2019-02-11T04:37:06.071Z,30.57
2019-02-11T04:39:31.905Z,24.57
2019-02-11T04:41:57.742Z,27.60
2019-02-11T04:44:23.592Z,24.43
2019-02-11T04:46:49.398Z,25.37
2019-02-11T04:49:15.251Z,29.37
2019-02-11T04:51:41.065Z,23.03
2019-02-11T04:54:06.886Z,28.37
2019-02-11T04:56:32.711Z,31.53
2019-02-11T04:58:58.591Z,29.93
2019-02-11T05:01:24.641Z,27.80
2019-02-11T05:03:50.464Z,30.33
2019-02-11T05:06:16.308Z,26.13
2019-02-11T05:08:42.119Z,24.40
2019-02-11T05:11:07.968Z,20.30
2019-02-11T05:13:33.787Z,27.70
2019-02-11T05:15:59.735Z,23.03
2019-02-11T05:18:25.547Z,15.00
2019-02-11T05:20:51.396Z,26.87
2019-02-11T05:23:17.209Z,26.67
2019-02-11T05:25:43.044Z,28.37
2019-02-11T05:28:08.859Z,20.97
2019-02-11T05:30:34.680Z,21.50
2019-02-11T05:33:00.667Z,24.63
2019-02-11T05:35:26.464Z,23.37
2019-02-11T05:37:52.312Z,26.43
2019-02-11T05:40:18.144Z,24.43
2019-02-11T05:42:43.992Z,25.83
2019-02-11T05:45:09.930Z,22.77
2019-02-11T05:47:35.777Z,23.77
2019-02-11T05:50:02.899Z,23.67
2019-02-11T05:52:28.816Z,24.20
2019-02-11T05:54:54.638Z,23.13
2019-02-11T05:57:20.499Z,21.60
2019-02-11T05:59:46.363Z,24.83
2019-02-11T06:02:13.831Z,30.90
2019-02-11T06:04:39.664Z,20.13
2019-02-11T06:07:05.481Z,17.10
2019-02-11T06:09:31.333Z,28.07
2019-02-11T06:11:57.140Z,15.70
2019-02-11T06:14:22.983Z,25.10
2019-02-11T06:16:48.798Z,16.53
2019-02-11T06:19:14.647Z,20.00
2019-02-11T06:21:40.475Z,20.13
2019-02-11T06:24:06.428Z,22.37
2019-02-11T06:26:32.245Z,19.47
2019-02-11T06:28:58.136Z,21.17
2019-02-11T06:31:23.939Z,26.50
2019-02-11T06:33:49.831Z,21.87
2019-02-11T06:36:15.658Z,22.10
2019-02-11T06:38:41.503Z,18.93
2019-02-11T06:41:07.319Z,24.43
2019-02-11T06:43:33.164Z,14.50
2019-02-11T06:45:59.093Z,18.30
2019-02-11T06:48:24.990Z,22.43
2019-02-11T06:50:50.800Z,20.30
2019-02-11T06:53:16.618Z,20.40
2019-02-11T06:55:42.455Z,20.20
2019-02-11T06:58:08.318Z,15.57
2019-02-11T07:00:34.190Z,23.10
2019-02-11T07:03:00.000Z,31.17
2019-02-11T07:05:25.844Z,19.67
2019-02-11T07:07:51.660Z,21.77
2019-02-11T07:10:17.537Z,18.93
2019-02-11T07:12:43.342Z,21.90
2019-02-11T07:15:11.318Z,23.20
2019-02-11T07:17:37.103Z,27.33
2019-02-11T07:20:06.546Z,20.57
2019-02-11T07:22:32.363Z,18.60
2019-02-11T07:24:58.210Z,15.80
2019-02-11T07:27:24.024Z,24.73
2019-02-11T07:29:50.337Z,21.30
2019-02-11T07:32:16.167Z,11.60
2019-02-11T07:34:42.037Z,26.10
2019-02-11T07:37:07.878Z,32.20
2019-02-11T07:39:33.693Z,21.23
2019-02-11T07:42:07.236Z,34.33
2019-02-11T07:44:33.065Z,29.50
2019-02-11T07:46:58.929Z,23.73
2019-02-11T07:49:24.758Z,28.50
2019-02-11T07:51:50.614Z,29.23
2019-02-11T07:54:16.455Z,23.43
2019-02-11T07:56:42.303Z,32.30
2019-02-11T07:59:08.172Z,19.93
2019-02-11T08:01:34.048Z,24.20
2019-02-11T08:03:59.998Z,29.37
2019-02-11T08:06:25.873Z,26.93
2019-02-11T08:08:51.936Z,24.60
2019-02-11T08:11:18.101Z,30.90
2019-02-11T08:13:43.929Z,31.43
2019-02-11T08:16:09.792Z,28.27
2019-02-11T08:18:35.630Z,33.83
2019-02-11T08:21:01.945Z,29.83
2019-02-11T08:23:27.887Z,32.73
2019-02-11T08:25:53.724Z,28.27
2019-02-11T08:28:19.910Z,29.90
2019-02-11T08:30:46.047Z,27.90
2019-02-11T08:33:12.009Z,32.57
2019-02-11T08:35:37.846Z,30.77
2019-02-11T08:38:03.684Z,22.60
2019-02-11T08:40:29.509Z,27.23
2019-02-11T08:42:55.376Z,26.57
2019-02-11T08:45:21.199Z,30.73
2019-02-11T08:47:47.056Z,26.93
2019-02-11T08:50:13.243Z,26.67
2019-02-11T08:52:39.096Z,25.83
2019-02-11T08:55:06.709Z,27.97
2019-02-11T08:57:32.552Z,23.80
2019-02-11T08:59:58.450Z,24.27
2019-02-11T09:02:24.604Z,30.00
2019-02-11T09:04:50.423Z,23.40
2019-02-11T09:07:16.242Z,27.53
2019-02-11T09:09:42.128Z,18.53
2019-02-11T09:12:07.953Z,23.40
2019-02-11T09:14:33.814Z,21.97
2019-02-11T09:16:59.643Z,25.67
2019-02-11T09:19:25.475Z,23.20
2019-02-11T09:21:51.311Z,18.53
2019-02-11T09:24:17.205Z,24.37
2019-02-11T09:26:43.214Z,23.40
2019-02-11T09:29:09.057Z,24.43
2019-02-11T09:31:34.910Z,22.10
2019-02-11T09:34:00.829Z,23.93
2019-02-11T09:36:26.677Z,18.83
2019-02-11T09:38:52.513Z,19.83
2019-02-11T09:41:18.468Z,21.87
2019-02-11T09:43:44.404Z,19.27
2019-02-11T09:46:10.264Z,21.73
2019-02-11T09:48:36.119Z,24.03
2019-02-11T09:51:03.174Z,20.70
2019-02-11T09:53:29.135Z,24.00
2019-02-11T09:55:54.971Z,22.27
2019-02-11T09:58:20.789Z,22.87
2019-02-11T10:00:46.872Z,22.47
2019-02-11T10:03:12.815Z,18.93
2019-02-11T10:05:38.665Z,21.97
2019-02-11T10:08:04.483Z,21.47
2019-02-11T10:10:30.428Z,17.17
2019-02-11T10:12:56.366Z,19.57
2019-02-11T10:15:22.361Z,18.70
2019-02-11T10:17:48.196Z,23.70
2019-02-11T10:20:14.724Z,18.90
2019-02-11T10:22:41.013Z,20.17
2019-02-11T10:25:13.132Z,21.93
2019-02-11T10:27:38.989Z,19.83
2019-02-11T10:30:08.629Z,20.83
2019-02-11T10:32:34.497Z,18.57
2019-02-11T10:35:00.363Z,18.70
2019-02-11T10:37:26.223Z,15.90
2019-02-11T10:39:52.032Z,21.53
2019-02-11T10:42:17.895Z,21.17
2019-02-11T10:44:43.830Z,17.33
2019-02-11T10:47:09.975Z,17.77
2019-02-11T10:49:35.833Z,18.00
2019-02-11T10:52:01.725Z,15.38
2019-02-11T10:54:27.754Z,18.53
2019-02-11T10:56:53.615Z,19.57
2019-02-11T10:59:19.484Z,17.70
2019-02-11T11:01:45.344Z,17.77
2019-02-11T11:04:11.384Z,16.60
2019-02-11T11:06:37.211Z,17.90
2019-02-11T11:09:06.382Z,15.43
2019-02-11T11:11:32.206Z,13.13
2019-02-11T11:13:58.068Z,16.23
2019-02-11T11:16:29.382Z,13.57
2019-02-11T11:18:51.671Z,20.13
2019-02-11T11:21:18.412Z,13.70
2019-02-11T11:23:44.259Z,13.43
2019-02-11T11:26:10.101Z,12.30
2019-02-11T11:28:37.449Z,15.80
2019-02-11T11:31:03.412Z,14.00
2019-02-11T11:33:29.240Z,11.53
2019-02-11T11:35:55.079Z,15.23
2019-02-11T11:38:21.455Z,15.40
2019-02-11T11:40:47.376Z,14.73
2019-02-11T11:43:13.344Z,21.70
2019-02-11T11:45:39.179Z,20.53
2019-02-11T11:48:04.991Z,19.53
2019-02-11T11:50:30.854Z,12.93
2019-02-11T11:52:56.703Z,19.73
2019-02-11T11:55:22.977Z,20.40
2019-02-11T11:57:48.912Z,16.23
2019-02-11T12:00:19.190Z,15.27
2019-02-11T12:03:00.370Z,18.73
2019-02-11T12:05:14.474Z,14.93
2019-02-11T12:07:40.414Z,15.07
2019-02-11T12:10:07.922Z,13.57
2019-02-11T12:12:33.739Z,17.53
2019-02-11T12:14:59.606Z,20.57
2019-02-11T12:17:25.477Z,14.90
2019-02-11T12:19:51.332Z,21.17
2019-02-11T12:22:17.149Z,17.37
2019-02-11T12:24:43.292Z,16.33
2019-02-11T12:27:09.207Z,19.27
2019-02-11T12:29:35.243Z,16.37
2019-02-11T12:32:01.193Z,16.20
2019-02-11T12:34:27.006Z,19.37
2019-02-11T12:36:52.848Z,20.73
2019-02-11T12:39:18.677Z,17.00
2019-02-11T12:41:44.539Z,16.37
2019-02-11T12:44:10.354Z,17.83
2019-02-11T12:46:36.225Z,13.50
2019-02-11T12:49:02.051Z,13.23
2019-02-11T12:51:27.936Z,11.60
2019-02-11T12:53:53.811Z,10.63
2019-02-11T12:56:19.629Z,15.43
2019-02-11T12:58:45.496Z,14.25
2019-02-11T13:01:11.478Z,16.37
2019-02-11T13:03:38.070Z,15.07
2019-02-11T13:06:04.482Z,13.70
2019-02-11T13:08:30.337Z,16.23
2019-02-11T13:10:56.191Z,15.73
2019-02-11T13:13:22.048Z,13.03
2019-02-11T13:16:01.575Z,13.70
2019-02-11T13:18:16.057Z,12.60
2019-02-11T13:20:42.036Z,14.27
2019-02-11T13:23:07.979Z,18.07
2019-02-11T13:25:33.828Z,9.17
2019-02-11T13:27:59.735Z,11.97
2019-02-11T13:30:25.681Z,12.87
2019-02-11T13:32:51.635Z,11.97
2019-02-11T13:35:17.605Z,20.43
2019-02-11T13:37:43.903Z,14.03
2019-02-11T13:40:10.231Z,8.87
2019-02-11T13:42:36.217Z,8.83
2019-02-11T13:45:05.854Z,7.67
2019-02-11T13:47:31.811Z,6.37
2019-02-11T13:49:57.710Z,7.30
2019-02-11T13:52:23.640Z,8.17
2019-02-11T13:54:49.617Z,8.00
2019-02-11T13:57:15.544Z,9.77
2019-02-11T13:59:41.435Z,10.90
2019-02-11T14:02:07.656Z,8.27
2019-02-11T14:04:33.736Z,11.00
2019-02-11T14:06:59.708Z,10.10
2019-02-11T14:09:27.710Z,17.13
2019-02-11T14:11:53.553Z,10.57
2019-02-11T14:14:23.244Z,12.77
2019-02-11T14:16:49.086Z,10.20
2019-02-11T14:19:14.950Z,7.87
2019-02-11T14:21:40.785Z,6.47
2019-02-11T14:24:06.700Z,10.37
2019-02-11T14:26:32.570Z,7.80
2019-02-11T14:28:58.526Z,5.60
2019-02-11T14:31:24.367Z,7.47
2019-02-11T14:33:50.333Z,7.27
2019-02-11T14:36:16.289Z,7.03
2019-02-11T14:38:42.273Z,4.20
2019-02-11T14:41:08.165Z,4.33
2019-02-11T14:43:33.983Z,5.17
2019-02-11T14:45:59.955Z,4.00
2019-02-11T14:48:28.638Z,6.63
2019-02-11T14:50:55.481Z,6.77
2019-02-11T14:53:21.332Z,3.43
2019-02-11T14:55:47.618Z,5.67
2019-02-11T14:58:13.459Z,3.80
2019-02-11T15:00:39.332Z,9.15
2019-02-11T15:03:05.160Z,3.70
2019-02-11T15:05:30.997Z,3.60
2019-02-11T15:07:56.875Z,2.97
2019-02-11T15:10:22.721Z,4.93
2019-02-11T15:12:48.650Z,4.63
2019-02-11T15:15:14.581Z,4.60
2019-02-11T15:17:43.069Z,7.93
2019-02-11T15:20:11.197Z,9.20
2019-02-11T15:22:37.065Z,7.63
2019-02-11T15:25:06.315Z,10.30
2019-02-11T15:27:32.252Z,6.83
2019-02-11T15:29:58.098Z,10.67
2019-02-11T15:32:23.976Z,9.60
2019-02-11T15:34:49.812Z,9.40
2019-02-11T15:37:15.684Z,8.23
2019-02-11T15:39:41.540Z,10.20
2019-02-11T15:42:07.534Z,6.80
2019-02-11T15:44:33.529Z,11.37
2019-02-11T15:46:59.376Z,11.63
2019-02-11T15:49:25.229Z,11.33
2019-02-11T15:51:51.124Z,10.73
2019-02-11T15:54:17.021Z,10.17
2019-02-11T15:56:42.868Z,11.20
2019-02-11T15:59:09.290Z,14.07
2019-02-11T16:01:35.281Z,14.10
2019-02-11T16:04:01.172Z,17.50
2019-02-11T16:06:27.062Z,11.17
2019-02-11T16:08:52.949Z,17.47
2019-02-11T16:11:18.804Z,14.83
2019-02-11T16:13:44.803Z,13.90
2019-02-11T16:16:10.801Z,7.47
2019-02-11T16:18:36.642Z,17.13
2019-02-11T16:21:02.929Z,11.63
2019-02-11T16:23:28.797Z,14.33
2019-02-11T16:25:55.044Z,18.03
2019-02-11T16:28:21.001Z,20.67
2019-02-11T16:30:46.961Z,16.70
2019-02-11T16:33:12.791Z,15.13
2019-02-11T16:35:38.755Z,17.37
2019-02-11T16:38:06.496Z,15.20
2019-02-11T16:40:32.834Z,13.77
2019-02-11T16:42:58.667Z,10.27
2019-02-11T16:45:24.645Z,17.60
2019-02-11T16:47:50.496Z,12.57
2019-02-11T16:50:16.437Z,17.17
2019-02-11T16:52:42.336Z,16.00
2019-02-11T16:55:09.502Z,17.30
2019-02-11T16:57:35.404Z,13.07
2019-02-11T17:00:01.796Z,12.20
2019-02-11T17:02:27.760Z,16.50
2019-02-11T17:04:53.698Z,22.67
2019-02-11T17:07:19.546Z,13.33
2019-02-11T17:09:45.383Z,13.80
2019-02-11T17:12:11.618Z,19.47
2019-02-11T17:14:37.577Z,15.80
2019-02-11T17:17:03.577Z,7.97
2019-02-11T17:19:29.418Z,11.80
2019-02-11T17:21:55.424Z,14.13
2019-02-11T17:24:21.357Z,12.10
2019-02-11T17:26:48.202Z,13.37
2019-02-11T17:29:14.090Z,19.50
2019-02-11T17:31:40.074Z,17.23
2019-02-11T17:34:05.936Z,12.83
2019-02-11T17:36:31.825Z,13.70
2019-02-11T17:38:57.704Z,18.17
2019-02-11T17:41:23.649Z,12.83
2019-02-11T17:43:49.653Z,15.23
2019-02-11T17:46:15.623Z,10.83
2019-02-11T17:48:41.436Z,18.60
2019-02-11T17:51:07.381Z,9.50
2019-02-11T17:53:33.406Z,13.80
2019-02-11T17:55:59.289Z,9.60
2019-02-11T17:58:25.259Z,22.17
2019-02-11T18:00:53.156Z,11.63
2019-02-11T18:03:19.031Z,16.47
2019-02-11T18:05:45.001Z,14.50
2019-02-11T18:08:11.101Z,17.30
2019-02-11T18:10:37.057Z,12.77
2019-02-11T18:13:03.072Z,14.97
2019-02-11T18:15:29.057Z,18.97
2019-02-11T18:17:55.122Z,18.67
2019-02-11T18:20:21.124Z,20.33
2019-02-11T18:22:47.043Z,16.97
2019-02-11T18:25:13.016Z,14.00
2019-02-11T18:27:38.951Z,12.90
2019-02-11T18:30:09.124Z,13.80
2019-02-11T18:32:35.187Z,13.87
2019-02-11T18:35:01.679Z,18.27
2019-02-11T18:37:27.545Z,13.30
2019-02-11T18:39:53.504Z,14.97
2019-02-11T18:42:19.364Z,17.67
2019-02-11T18:44:45.542Z,17.13
2019-02-11T18:47:11.392Z,20.90
2019-02-11T18:49:37.346Z,13.27
2019-02-11T18:52:03.324Z,13.67
2019-02-11T18:54:29.230Z,12.93
2019-02-11T18:56:55.092Z,22.20
2019-02-11T18:59:24.739Z,16.13
2019-02-11T19:01:49.283Z,12.37
2019-02-11T19:04:15.763Z,20.63
2019-02-11T19:06:41.849Z,11.87
2019-02-11T19:09:09.736Z,12.23
2019-02-11T19:11:35.635Z,16.70
2019-02-11T19:14:01.585Z,15.07
2019-02-11T19:16:27.736Z,19.00
2019-02-11T19:18:53.785Z,15.63
2019-02-11T19:21:19.768Z,16.63
2019-02-11T19:23:45.602Z,16.60
2019-02-11T19:26:11.593Z,20.77
2019-02-11T19:28:37.453Z,15.33
2019-02-11T19:31:04.140Z,19.53
2019-02-11T19:33:29.992Z,20.13
2019-02-11T19:35:56.006Z,16.50
2019-02-11T19:38:21.880Z,19.30
2019-02-11T19:40:47.714Z,17.37
2019-02-11T19:43:14.075Z,15.87
2019-02-11T19:45:40.069Z,17.70
2019-02-11T19:48:06.020Z,16.60
2019-02-11T19:50:31.853Z,28.07
2019-02-11T19:52:57.883Z,20.77
2019-02-11T19:55:23.848Z,20.13
2019-02-11T19:57:49.745Z,22.70
2019-02-11T20:00:20.980Z,24.07
2019-02-11T20:02:47.882Z,22.60
2019-02-11T20:05:13.963Z,29.00
2019-02-11T20:07:40.040Z,22.70
2019-02-11T20:10:09.721Z,20.90
2019-02-11T20:12:35.732Z,28.93
2019-02-11T20:15:03.213Z,21.70
2019-02-11T20:17:29.257Z,18.87
2019-02-11T20:20:00.356Z,24.43
2019-02-11T20:22:23.086Z,21.17
2019-02-11T20:24:49.182Z,26.57
2019-02-11T20:27:15.052Z,20.97
2019-02-11T20:29:41.040Z,20.37
2019-02-11T20:32:06.868Z,28.00
2019-02-11T20:34:32.877Z,21.07
2019-02-11T20:36:59.216Z,20.97
2019-02-11T20:39:25.214Z,25.37
2019-02-11T20:41:51.163Z,24.77
2019-02-11T20:44:17.023Z,24.97
2019-02-11T20:46:42.986Z,22.43
2019-02-11T20:49:09.052Z,24.20
2019-02-11T20:51:34.998Z,19.27
2019-02-11T20:54:01.099Z,24.93
2019-02-11T20:56:27.494Z,32.33
2019-02-11T20:58:55.980Z,26.27
2019-02-11T21:01:23.834Z,29.80
2019-02-11T21:03:49.801Z,37.13
2019-02-11T21:06:15.751Z,28.87
2019-02-11T21:08:41.602Z,29.90
2019-02-11T21:11:07.489Z,28.97
2019-02-11T21:13:33.546Z,25.17
2019-02-11T21:15:59.524Z,23.73
2019-02-11T21:18:25.452Z,25.37
2019-02-11T21:20:51.402Z,27.33
2019-02-11T21:23:17.360Z,32.70
2019-02-11T21:25:43.553Z,29.47
2019-02-11T21:28:09.405Z,24.30
2019-02-11T21:30:35.647Z,25.60
2019-02-11T21:33:01.519Z,33.63
2019-02-11T21:35:27.404Z,24.00
2019-02-11T21:37:53.370Z,24.70
2019-02-11T21:40:22.526Z,28.83
2019-02-11T21:42:48.386Z,31.57
2019-02-11T21:45:14.572Z,33.27
2019-02-11T21:47:40.505Z,32.33
2019-02-11T21:50:15.104Z,29.70
2019-02-11T21:52:40.951Z,25.07
2019-02-11T21:55:12.784Z,26.37
2019-02-11T21:57:38.821Z,26.30
2019-02-11T22:00:14.234Z,30.50
2019-02-11T22:02:40.095Z,29.17
2019-02-11T22:05:07.050Z,28.30
2019-02-11T22:07:32.863Z,33.20
2019-02-11T22:09:58.716Z,27.23
2019-02-11T22:12:24.552Z,28.97
2019-02-11T22:14:50.395Z,32.17
2019-02-11T22:17:16.713Z,33.10
2019-02-11T22:19:42.538Z,32.03
2019-02-11T22:22:08.402Z,31.87
2019-02-11T22:24:36.325Z,28.00
2019-02-11T22:27:02.164Z,23.30
2019-02-11T22:29:28.015Z,34.53
2019-02-11T22:31:53.866Z,20.67
2019-02-11T22:34:19.872Z,23.17
2019-02-11T22:36:45.721Z,30.73
2019-02-11T22:39:11.623Z,31.47
2019-02-11T22:41:37.465Z,47.03
2019-02-11T22:44:03.357Z,49.90
2019-02-11T22:46:29.245Z,65.63
2019-02-11T22:48:55.122Z,58.53
2019-02-11T22:51:21.063Z,39.47
2019-02-11T22:53:46.916Z,40.27
2019-02-11T22:56:12.740Z,33.00
2019-02-11T22:58:38.696Z,30.90
2019-02-11T23:01:06.243Z,40.17
2019-02-11T23:03:32.780Z,34.83
2019-02-11T23:06:01.484Z,38.83
2019-02-11T23:08:27.438Z,33.47
2019-02-11T23:10:53.261Z,34.43
2019-02-11T23:13:19.180Z,35.60
2019-02-11T23:15:45.158Z,32.47
2019-02-11T23:18:10.987Z,36.70
2019-02-11T23:20:36.867Z,30.70
2019-02-11T23:23:02.832Z,32.07
2019-02-11T23:25:28.772Z,29.83
2019-02-11T23:27:54.592Z,28.37
2019-02-11T23:30:20.509Z,22.13
2019-02-11T23:32:46.607Z,38.37
2019-02-11T23:35:12.453Z,35.13
2019-02-11T23:37:38.282Z,29.23
2019-02-11T23:40:06.952Z,26.80
2019-02-11T23:42:32.808Z,31.97
2019-02-11T23:44:58.658Z,33.53
2019-02-11T23:47:24.492Z,29.20
2019-02-11T23:49:50.910Z,28.67
2019-02-11T23:52:16.734Z,29.40
2019-02-11T23:54:42.573Z,31.57
2019-02-11T23:57:08.412Z,31.23
2019-02-11T23:59:34.250Z,27.57
